KAZO

Kalamazoo / Battle Creek International Airport

Kalamazoo, Michigan, USA
KAZO 181721Z 1818/1918 VRB05KT P6SM SCT035 FM190000 VRB03KT P6SM SKC FM191700 16009KT P6SM FEW040 SCT120
Issued Valid From Valid To
Jul-18 @ 17:21 UTC
(5 hours ago)
Jul-18 @ 18:00 UTC
(4 hours ago)
Jul-19 @ 18:00 UTC
(in 20 hours)
Jul-18 @ 18:00 to Jul-19 @ 00:00
KAZO 181721Z 1818/1918 VRB05KT P6SM SCT035
Wind Visibility Clouds
Variable at 5 knots Greater than 6 miles
  • Scattered at 3,500' AGL
From Jul-19 @ 00:00 to Jul-19 @ 17:00
FM190000 VRB03KT P6SM SKC
Wind Visibility Clouds
Variable at 3 knots Greater than 6 miles
  • Clear skies
From Jul-19 @ 17:00 to Jul-19 @ 18:00
FM191700 16009KT P6SM FEW040 SCT120
Wind Visibility Clouds
160° at 9 knots Greater than 6 miles
  • Few at 4,000' AGL
  • Scattered at 12,000' AGL
KAZO 181721Z 1818/1918 VRB05KT P6SM SCT035 FM190000 VRB03KT P6SM SKC FM191700 16009KT P6SM FEW040 SCT120
Issued Jul-18 @ 17:21 UTC
(5 hours ago)
Valid From Jul-18 @ 18:00 UTC
(4 hours ago)
Valid To Jul-19 @ 18:00 UTC
(in 20 hours)
Jul-18 @ 18:00 - Jul-19 @ 00:00
Wind Visibility
Variable at 5 knots Greater than 6 miles
Clouds
  • Scattered at 3,500' AGL
From Jul-19 @ 00:00 - Jul-19 @ 17:00
Wind Visibility
Variable at 3 knots Greater than 6 miles
Clouds
  • Clear skies
From Jul-19 @ 17:00 - Jul-19 @ 18:00
Wind Visibility
160° at 9 knots Greater than 6 miles
Clouds
  • Few at 4,000' AGL
  • Scattered at 12,000' AGL